This is the latest recevied weather packets stored in our database for station/object WK1F-2. If no packets are shown the sender has not sent any weather packets the latest 1 day(s).
| Time | Temp. | Humidity | Pressure | Rain* | Wind** | Luminosity | Snow |
|---|---|---|---|---|---|---|---|
| 1836274817 | 23.33° C | 88% | 1016.7 hPa | 0 mm | 0 m/s | - | - |
| 1836274518 | 23.33° C | 87% | 1016.8 hPa | 0 mm | 0 m/s | - | - |
| 1836274368 | 23.33° C | 88% | 1016.7 hPa | 0 mm | 0 m/s | - | - |
| 1836274217 | 23.33° C | 87% | 1016.8 hPa | 0 mm | 0 m/s | - | - |
| 1836273917 | 23.89° C | 87% | 1016.7 hPa | 0 mm | 0.45 m/s, 80° | - | - |
| 1778064449 | 16.11° C | 91% | 1015.5 hPa | 0 mm | 1.34 m/s, 158° | - | - |
| 1778064149 | 16.11° C | 90% | 1015.6 hPa | 0 mm | 1.34 m/s, 177° | - | - |
| 1778063849 | 16.11° C | 90% | 1015.7 hPa | 0 mm | 1.34 m/s, 196° | - | - |
| 1778063549 | 16.67° C | 90% | 1015.6 hPa | 0 mm | 0.89 m/s, 203° | - | - |
| 1778063249 | 16.67° C | 90% | 1015.6 hPa | 0 mm | 1.34 m/s, 202° | - | - |
| 1778062949 | 16.67° C | 89% | 1015.5 hPa | 0 mm | 0.89 m/s, 196° | - | - |
| 1778062649 | 16.67° C | 89% | 1015.6 hPa | 0 mm | 0.89 m/s, 188° | - | - |
| 1778062349 | 16.67° C | 89% | 1015.6 hPa | 0 mm | 0.89 m/s, 192° | - | - |
| 1778062049 | 16.67° C | 89% | 1015.6 hPa | 0 mm | 0.89 m/s, 184° | - | - |
| 1778061749 | 16.67° C | 89% | 1015.6 hPa | 0 mm | 0.89 m/s, 196° | - | - |
| 1778061449 | 16.67° C | 89% | 1015.5 hPa | 0 mm | 1.34 m/s, 203° | - | - |
| 1778061149 | 16.67° C | 88% | 1015.6 hPa | 0 mm | 1.34 m/s, 211° | - | - |
| 1778060849 | 16.67° C | 88% | 1015.5 hPa | 0 mm | 1.34 m/s, 197° | - | - |
| 1778060549 | 16.67° C | 88% | 1015.5 hPa | 0 mm | 0.89 m/s, 204° | - | - |
| 1778060249 | 16.67° C | 88% | 1015.6 hPa | 0 mm | 1.34 m/s, 211° | - | - |
| 1778059949 | 16.67° C | 88% | 1015.4 hPa | 0 mm | 1.34 m/s, 217° | - | - |
| 1778059649 | 16.67° C | 88% | 1015.4 hPa | 0 mm | 1.79 m/s, 218° | - | - |
| 1778059349 | 16.67° C | 87% | 1015.3 hPa | 0 mm | 1.79 m/s, 192° | - | - |
| 1778059049 | 16.67° C | 87% | 1015.3 hPa | 0 mm | 2.24 m/s, 197° | - | - |
| 1778058749 | 16.67° C | 87% | 1015.2 hPa | 0 mm | 1.34 m/s, 180° | - | - |
* Rain latest hour (hover to see other rain measurements)
** Current wind speed in m/s (hover to see current wind gust speed)